createdAt,value
2022-11-01T00:01:16.555Z,7.30
2022-11-01T00:04:04.467Z,7.30
2022-11-01T00:06:52.345Z,7.20
2022-11-01T00:09:39.947Z,7.20
2022-11-01T00:12:27.805Z,7.20
2022-11-01T00:15:16.985Z,7.20
2022-11-01T00:18:04.590Z,7.20
2022-11-01T00:20:52.300Z,7.40
2022-11-01T00:23:40.599Z,7.50
2022-11-01T00:26:28.341Z,7.60
2022-11-01T00:29:16.531Z,7.70
2022-11-01T00:32:06.977Z,7.80
2022-11-01T00:34:55.066Z,7.90
2022-11-01T00:37:42.640Z,8.00
2022-11-01T00:40:30.566Z,8.20
2022-11-01T00:46:06.958Z,8.40
2022-11-01T00:48:56.247Z,8.50
2022-11-01T00:51:43.780Z,8.70
2022-11-01T00:54:31.714Z,8.80
2022-11-01T00:57:19.455Z,8.90
2022-11-01T01:00:08.343Z,8.90
2022-11-01T01:02:56.478Z,8.90
2022-11-01T01:05:45.487Z,8.90
2022-11-01T01:08:34.153Z,8.80
2022-11-01T01:11:22.049Z,8.70
2022-11-01T01:14:10.502Z,8.60
2022-11-01T01:16:58.169Z,8.50
2022-11-01T01:19:46.075Z,8.40
2022-11-01T01:22:35.097Z,8.20
2022-11-01T01:25:22.909Z,8.10
2022-11-01T01:28:11.274Z,8.00
2022-11-01T01:30:58.892Z,7.90
2022-11-01T01:33:46.640Z,7.90
2022-11-01T01:36:34.447Z,7.80
2022-11-01T01:39:23.759Z,7.80
2022-11-01T01:42:18.341Z,7.90
2022-11-01T01:45:29.269Z,7.90
2022-11-01T01:48:21.869Z,7.90
2022-11-01T01:55:37.637Z,7.90
2022-11-01T01:58:30.940Z,7.80
2022-11-01T02:01:19.765Z,7.80
2022-11-01T02:04:13.741Z,7.80
2022-11-01T02:07:02.181Z,7.70
2022-11-01T02:09:50.205Z,7.70
2022-11-01T02:12:39.304Z,7.60
2022-11-01T02:15:48.396Z,7.60
2022-11-01T02:18:42.890Z,7.50
2022-11-01T02:21:58.301Z,7.40
2022-11-01T02:25:10.953Z,7.40
2022-11-01T02:28:17.022Z,7.40
2022-11-01T02:31:18.961Z,7.30
2022-11-01T02:34:17.767Z,7.30
2022-11-01T02:37:12.664Z,7.30
2022-11-01T02:40:07.623Z,7.30
2022-11-01T02:43:01.960Z,7.30
2022-11-01T02:45:51.839Z,7.30
2022-11-01T02:48:40.351Z,7.40
2022-11-01T02:51:30.734Z,7.40
2022-11-01T02:54:22.680Z,7.40
2022-11-01T02:57:28.210Z,7.40
2022-11-01T03:00:22.054Z,7.50
2022-11-01T03:03:15.399Z,7.50
2022-11-01T03:06:13.365Z,7.50
2022-11-01T03:09:05.689Z,7.60
2022-11-01T03:11:57.318Z,7.60
2022-11-01T03:14:53.519Z,7.60
2022-11-01T03:17:48.199Z,7.60
2022-11-01T03:20:48.625Z,7.60
2022-11-01T03:23:41.597Z,7.50
2022-11-01T03:26:34.679Z,7.50
2022-11-01T03:29:24.823Z,7.40
2022-11-01T03:32:14.976Z,7.40
2022-11-01T03:35:05.165Z,7.30
2022-11-01T03:37:58.774Z,7.30
2022-11-01T03:40:51.831Z,7.30
2022-11-01T03:43:42.576Z,7.30
2022-11-01T03:46:30.083Z,7.30
2022-11-01T03:49:18.696Z,7.30
2022-11-01T03:52:06.613Z,7.20
2022-11-01T03:54:54.278Z,7.20
2022-11-01T03:57:42.884Z,7.20
2022-11-01T04:00:33.555Z,7.10
2022-11-01T04:03:21.624Z,7.00
2022-11-01T04:06:10.198Z,6.90
2022-11-01T04:08:57.945Z,6.90
2022-11-01T04:11:45.631Z,6.80
2022-11-01T04:14:50.853Z,6.80
2022-11-01T04:17:57.086Z,6.70
2022-11-01T04:20:44.709Z,6.60
2022-11-01T04:23:32.807Z,6.50
2022-11-01T04:26:22.804Z,6.50
2022-11-01T04:29:10.795Z,6.50
2022-11-01T04:31:58.587Z,6.40
2022-11-01T04:34:47.693Z,6.40
2022-11-01T04:37:35.059Z,6.40
2022-11-01T04:40:22.705Z,6.30
2022-11-01T04:43:11.147Z,6.30
2022-11-01T04:45:58.909Z,6.20
2022-11-01T04:48:46.678Z,6.20
2022-11-01T04:51:35.777Z,6.20
2022-11-01T04:54:23.750Z,6.20
2022-11-01T04:57:22.766Z,6.10
2022-11-01T05:00:12.786Z,6.10
2022-11-01T05:03:04.345Z,6.10
2022-11-01T05:05:52.432Z,6.10
2022-11-01T05:08:41.312Z,6.10
2022-11-01T05:11:28.737Z,6.10
2022-11-01T05:14:16.484Z,6.10
2022-11-01T05:17:04.336Z,6.30
2022-11-01T05:19:52.223Z,6.50
2022-11-01T05:22:39.742Z,6.60
2022-11-01T05:25:29.117Z,6.70
2022-11-01T05:28:17.808Z,6.80
2022-11-01T05:31:05.454Z,6.90
2022-11-01T05:33:52.960Z,6.90
2022-11-01T05:36:40.744Z,6.90
2022-11-01T05:39:28.781Z,6.90
2022-11-01T05:42:17.713Z,6.90
2022-11-01T05:45:05.873Z,6.90
2022-11-01T05:47:53.365Z,6.80
2022-11-01T05:50:41.700Z,6.80
2022-11-01T05:53:29.690Z,6.90
2022-11-01T05:56:17.531Z,7.00
2022-11-01T05:59:06.882Z,7.00
2022-11-01T06:01:54.846Z,6.90
2022-11-01T06:04:42.469Z,6.90
2022-11-01T06:07:30.281Z,6.90
2022-11-01T06:10:17.938Z,6.80
2022-11-01T06:13:05.944Z,6.80
2022-11-01T06:16:00.532Z,6.70
2022-11-01T06:18:48.655Z,6.60
2022-11-01T06:21:36.282Z,6.60
2022-11-01T06:24:23.768Z,6.70
2022-11-01T06:27:12.750Z,6.80
2022-11-01T06:30:00.682Z,7.00
2022-11-01T06:32:49.632Z,7.20
2022-11-01T06:35:37.754Z,7.30
2022-11-01T06:38:25.231Z,7.40
2022-11-01T06:41:13.190Z,7.60
2022-11-01T06:44:01.480Z,7.70
2022-11-01T06:46:49.384Z,7.70
2022-11-01T06:49:38.503Z,7.80
2022-11-01T06:52:26.311Z,7.80
2022-11-01T06:55:14.096Z,7.90
2022-11-01T06:58:03.893Z,7.80
2022-11-01T07:00:51.808Z,7.80
2022-11-01T07:03:41.937Z,7.80
2022-11-01T07:06:31.716Z,7.80
2022-11-01T07:09:19.361Z,7.90
2022-11-01T07:12:07.597Z,7.90
2022-11-01T07:14:55.322Z,8.10
2022-11-01T07:17:43.909Z,8.20
2022-11-01T07:20:35.317Z,8.30
2022-11-01T07:23:25.397Z,8.50
2022-11-01T07:26:13.282Z,8.60
2022-11-01T07:29:01.164Z,8.80
2022-11-01T07:31:48.895Z,9.00
2022-11-01T07:34:36.693Z,9.20
2022-11-01T07:37:24.257Z,9.40
2022-11-01T07:40:14.041Z,9.70
2022-11-01T07:43:02.245Z,9.80
2022-11-01T07:45:50.093Z,10.00
2022-11-01T07:48:37.960Z,10.00
2022-11-01T07:51:25.657Z,10.10
2022-11-01T07:54:12.992Z,10.20
2022-11-01T07:57:01.984Z,10.40
2022-11-01T07:59:49.658Z,10.50
2022-11-01T08:02:37.029Z,10.60
2022-11-01T08:05:24.445Z,10.80
2022-11-01T08:08:14.487Z,10.90
2022-11-01T08:11:02.321Z,11.10
2022-11-01T08:13:50.903Z,11.20
2022-11-01T08:16:38.300Z,11.40
2022-11-01T08:19:25.950Z,11.40
2022-11-01T08:22:13.510Z,11.50
2022-11-01T08:25:00.825Z,11.70
2022-11-01T08:27:48.562Z,11.70
2022-11-01T08:30:37.861Z,11.80
2022-11-01T08:33:25.698Z,12.00
2022-11-01T08:36:13.183Z,12.20
2022-11-01T08:39:01.116Z,12.40
2022-11-01T08:41:51.118Z,12.40
2022-11-01T08:44:38.780Z,12.50
2022-11-01T08:47:27.711Z,12.60
2022-11-01T08:50:17.863Z,12.60
2022-11-01T08:53:06.564Z,12.70
2022-11-01T08:55:55.717Z,12.70
2022-11-01T08:58:43.453Z,12.70
2022-11-01T09:01:31.295Z,12.80
2022-11-01T09:04:20.166Z,12.80
2022-11-01T09:07:07.317Z,12.70
2022-11-01T09:09:54.663Z,12.70
2022-11-01T09:12:42.058Z,12.80
2022-11-01T09:15:29.606Z,13.00
2022-11-01T09:18:17.069Z,13.20
2022-11-01T09:21:07.230Z,13.40
2022-11-01T09:23:54.575Z,13.40
2022-11-01T09:26:42.530Z,13.60
2022-11-01T09:29:30.496Z,13.80
2022-11-01T09:32:18.126Z,14.00
2022-11-01T09:35:06.158Z,14.10
2022-11-01T09:37:59.853Z,14.30
2022-11-01T09:40:48.326Z,14.60
2022-11-01T09:43:36.957Z,14.80
2022-11-01T09:46:27.072Z,14.80
2022-11-01T09:49:17.971Z,14.70
2022-11-01T09:52:05.785Z,14.80
2022-11-01T09:54:54.493Z,14.90
2022-11-01T09:57:44.601Z,15.10
2022-11-01T10:00:35.355Z,15.10
2022-11-01T10:03:35.075Z,15.30
2022-11-01T10:06:24.942Z,15.40
2022-11-01T10:09:17.481Z,15.40
2022-11-01T10:12:13.688Z,15.40
2022-11-01T10:15:10.395Z,15.50
2022-11-01T10:18:00.974Z,15.60
2022-11-01T10:20:49.267Z,15.80
2022-11-01T10:23:41.695Z,16.00
2022-11-01T10:26:31.573Z,16.10
2022-11-01T10:29:24.831Z,16.20
2022-11-01T10:32:24.232Z,16.20
2022-11-01T10:35:19.117Z,16.10
2022-11-01T10:38:25.012Z,16.10
2022-11-01T10:41:24.912Z,16.10
2022-11-01T10:44:16.936Z,16.20
2022-11-01T10:47:09.514Z,16.30
2022-11-01T10:50:08.514Z,16.40
2022-11-01T10:52:59.804Z,16.40
2022-11-01T10:55:52.233Z,16.60
2022-11-01T10:58:42.947Z,16.70
2022-11-01T11:01:37.426Z,16.90
2022-11-01T11:04:26.713Z,17.00
2022-11-01T11:07:18.557Z,17.00
2022-11-01T11:10:22.776Z,16.90
2022-11-01T11:13:12.187Z,17.00
2022-11-01T11:16:05.355Z,17.00
2022-11-01T11:19:04.346Z,16.90
2022-11-01T11:21:55.481Z,16.90
2022-11-01T11:24:45.142Z,16.90
2022-11-01T11:27:34.431Z,16.70
2022-11-01T11:30:33.460Z,16.60
2022-11-01T11:33:21.907Z,16.60
2022-11-01T11:36:10.252Z,16.60
2022-11-01T11:38:59.978Z,16.60
2022-11-01T11:41:48.363Z,16.70
2022-11-01T11:44:50.661Z,16.90
2022-11-01T11:47:41.506Z,17.00
2022-11-01T11:50:35.154Z,16.90
2022-11-01T11:53:24.603Z,16.90
2022-11-01T11:56:13.869Z,16.90
2022-11-01T11:59:08.633Z,16.90
2022-11-01T12:02:00.284Z,16.90
2022-11-01T12:04:52.987Z,16.80
2022-11-01T12:07:48.950Z,16.70
2022-11-01T12:10:39.309Z,16.70
2022-11-01T12:13:33.324Z,16.60
2022-11-01T12:16:24.807Z,16.50
2022-11-01T12:19:25.340Z,16.50
2022-11-01T12:22:13.876Z,16.50
2022-11-01T12:25:06.383Z,16.50
2022-11-01T12:28:02.749Z,16.60
2022-11-01T12:30:56.648Z,16.60
2022-11-01T12:33:49.891Z,16.70
2022-11-01T12:36:44.396Z,16.70
2022-11-01T12:39:41.703Z,16.70
2022-11-01T12:42:33.961Z,16.80
2022-11-01T12:45:29.175Z,17.00
2022-11-01T12:48:25.423Z,17.20
2022-11-01T12:51:20.661Z,17.50
2022-11-01T12:54:16.256Z,17.60
2022-11-01T12:57:03.883Z,17.70
2022-11-01T12:59:52.511Z,17.70
2022-11-01T13:02:57.880Z,17.80
2022-11-01T13:05:53.350Z,17.80
2022-11-01T13:08:50.179Z,17.90
2022-11-01T13:11:47.786Z,18.00
2022-11-01T13:14:47.667Z,18.30
2022-11-01T13:17:45.319Z,18.50
2022-11-01T13:20:42.918Z,18.80
2022-11-01T13:23:37.478Z,18.70
2022-11-01T13:26:28.012Z,18.70
2022-11-01T13:29:20.165Z,18.60
2022-11-01T13:32:17.643Z,18.40
2022-11-01T13:35:38.499Z,18.20
2022-11-01T13:38:36.533Z,17.90
2022-11-01T13:41:31.003Z,17.70
2022-11-01T13:44:23.623Z,17.50
2022-11-01T13:47:37.361Z,17.50
2022-11-01T13:51:03.739Z,17.60
2022-11-01T13:53:58.769Z,17.80
2022-11-01T13:56:53.608Z,17.90
2022-11-01T13:59:46.345Z,18.00
2022-11-01T14:02:57.365Z,18.00
2022-11-01T14:05:46.218Z,18.00
2022-11-01T14:08:38.408Z,18.10
2022-11-01T14:11:46.604Z,18.00
2022-11-01T14:14:53.470Z,17.70
2022-11-01T14:18:05.479Z,17.50
2022-11-01T14:20:54.658Z,17.40
2022-11-01T14:23:51.445Z,17.30
2022-11-01T14:27:01.156Z,17.20
2022-11-01T14:29:53.600Z,17.00
2022-11-01T14:32:43.134Z,16.80
2022-11-01T14:35:34.007Z,16.70
2022-11-01T14:38:29.181Z,16.50
2022-11-01T14:41:19.086Z,16.30
2022-11-01T14:44:14.115Z,16.40
2022-11-01T14:47:07.760Z,16.20
2022-11-01T14:50:00.478Z,16.00
2022-11-01T14:52:54.015Z,15.90
2022-11-01T14:55:41.664Z,15.80
2022-11-01T14:58:29.792Z,15.70
2022-11-01T15:01:20.787Z,15.60
2022-11-01T15:04:21.461Z,15.40
2022-11-01T15:07:20.380Z,15.30
2022-11-01T15:10:10.783Z,15.10
2022-11-01T15:13:00.454Z,15.00
2022-11-01T15:15:54.107Z,14.80
2022-11-01T15:18:45.587Z,14.70
2022-11-01T15:21:33.941Z,14.50
2022-11-01T15:24:22.627Z,14.40
2022-11-01T15:27:14.335Z,14.30
2022-11-01T15:30:02.517Z,14.10
2022-11-01T15:32:53.935Z,14.00
2022-11-01T15:35:43.738Z,13.90
2022-11-01T15:38:31.853Z,13.80
2022-11-01T15:41:23.392Z,13.70
2022-11-01T15:44:19.371Z,13.60
2022-11-01T15:47:07.015Z,13.50
2022-11-01T15:49:56.297Z,13.40
2022-11-01T15:52:46.754Z,13.30
2022-11-01T15:55:36.141Z,13.20
2022-11-01T15:58:26.749Z,13.10
2022-11-01T16:01:16.861Z,13.00
2022-11-01T16:04:05.964Z,12.90
2022-11-01T16:06:56.723Z,12.90
2022-11-01T16:09:46.862Z,12.80
2022-11-01T16:12:37.160Z,12.70
2022-11-01T16:15:25.693Z,12.60
2022-11-01T16:18:17.163Z,12.60
2022-11-01T16:21:05.789Z,12.60
2022-11-01T16:23:58.326Z,12.50
2022-11-01T16:26:59.076Z,12.50
2022-11-01T16:29:50.935Z,12.50
2022-11-01T16:32:38.625Z,12.40
2022-11-01T16:35:32.030Z,12.40
2022-11-01T16:38:23.736Z,12.40
2022-11-01T16:41:20.564Z,12.30
2022-11-01T16:44:16.063Z,12.40
2022-11-01T16:47:03.815Z,12.40
2022-11-01T16:49:54.217Z,12.50
2022-11-01T16:52:42.074Z,12.50
2022-11-01T16:55:31.383Z,12.50
2022-11-01T16:58:25.912Z,12.50
2022-11-01T17:01:21.351Z,12.50
2022-11-01T17:04:13.148Z,12.50
2022-11-01T17:07:01.233Z,12.50
2022-11-01T17:09:49.062Z,12.60
2022-11-01T17:12:37.135Z,12.60
2022-11-01T17:15:26.873Z,12.60
2022-11-01T17:18:18.140Z,12.60
2022-11-01T17:21:08.772Z,12.60
2022-11-01T17:23:56.472Z,12.60
2022-11-01T17:26:44.170Z,12.60
2022-11-01T17:29:32.830Z,12.70
2022-11-01T17:32:20.328Z,12.70
2022-11-01T17:35:09.950Z,12.70
2022-11-01T17:37:57.648Z,12.70
2022-11-01T17:40:46.622Z,12.70
2022-11-01T17:43:34.454Z,12.70
2022-11-01T17:46:27.175Z,12.70
2022-11-01T17:49:16.247Z,12.70
2022-11-01T17:52:05.669Z,12.80
2022-11-01T17:54:53.574Z,12.80
2022-11-01T17:57:41.753Z,12.90
2022-11-01T18:00:29.683Z,12.90
2022-11-01T18:03:17.164Z,12.90
2022-11-01T18:06:05.311Z,13.00
2022-11-01T18:08:54.906Z,13.10
2022-11-01T18:11:49.310Z,13.10
2022-11-01T18:14:49.230Z,13.20
2022-11-01T18:17:49.027Z,13.30
2022-11-01T18:20:47.254Z,13.20
2022-11-01T18:23:36.873Z,13.20
2022-11-01T18:26:29.668Z,13.10
2022-11-01T18:29:17.949Z,13.10
2022-11-01T18:32:10.700Z,13.10
2022-11-01T18:34:59.941Z,13.10
2022-11-01T18:37:50.186Z,13.10
2022-11-01T18:40:44.296Z,13.00
2022-11-01T18:43:34.089Z,12.90
2022-11-01T18:46:25.852Z,12.80
2022-11-01T18:49:14.536Z,12.80
2022-11-01T18:52:02.138Z,12.70
2022-11-01T18:54:56.076Z,12.60
2022-11-01T18:57:44.415Z,12.50
2022-11-01T19:00:33.316Z,12.50
2022-11-01T19:03:24.193Z,12.50
2022-11-01T19:06:16.617Z,12.50
2022-11-01T19:09:15.305Z,12.40
2022-11-01T19:12:04.002Z,12.40
2022-11-01T19:14:53.493Z,12.40
2022-11-01T19:17:43.464Z,12.40
2022-11-01T19:20:32.342Z,12.30
2022-11-01T19:23:21.408Z,12.30
2022-11-01T19:26:16.555Z,12.30
2022-11-01T19:29:10.650Z,12.20
2022-11-01T19:31:59.110Z,12.20
2022-11-01T19:34:48.752Z,12.20
2022-11-01T19:37:37.523Z,12.10
2022-11-01T19:40:27.988Z,12.10
2022-11-01T19:43:17.014Z,12.10
2022-11-01T19:46:04.572Z,12.10
2022-11-01T19:48:53.200Z,12.10
2022-11-01T19:51:42.143Z,12.10
2022-11-01T19:54:35.385Z,12.10
2022-11-01T19:57:29.029Z,12.00
2022-11-01T20:00:19.056Z,12.00
2022-11-01T20:03:13.192Z,12.00
2022-11-01T20:06:00.597Z,11.90
2022-11-01T20:08:50.578Z,11.90
2022-11-01T20:11:38.114Z,11.90
2022-11-01T20:14:25.625Z,11.90
2022-11-01T20:17:13.381Z,11.90
2022-11-01T20:20:00.973Z,11.90
2022-11-01T20:22:54.831Z,11.90
2022-11-01T20:25:49.241Z,11.80
2022-11-01T20:28:36.854Z,11.80
2022-11-01T20:31:25.017Z,11.80
2022-11-01T20:34:13.174Z,11.80
2022-11-01T20:37:27.031Z,11.80
2022-11-01T20:40:09.451Z,11.80
2022-11-01T20:42:58.503Z,11.80
2022-11-01T20:45:45.981Z,11.70
2022-11-01T20:48:33.585Z,11.70
2022-11-01T20:51:20.999Z,11.70
2022-11-01T20:54:08.385Z,11.60
2022-11-01T20:56:55.821Z,11.60
2022-11-01T20:59:45.345Z,11.60
2022-11-01T21:02:32.880Z,11.60
2022-11-01T21:05:22.340Z,11.50
2022-11-01T21:08:13.006Z,11.50
2022-11-01T21:11:02.055Z,11.40
2022-11-01T21:13:51.430Z,11.30
2022-11-01T21:16:40.250Z,11.20
2022-11-01T21:19:27.968Z,11.20
2022-11-01T21:22:18.663Z,11.10
2022-11-01T21:25:16.945Z,11.00
2022-11-01T21:28:15.133Z,11.00
2022-11-01T21:31:12.537Z,10.90
2022-11-01T21:34:03.211Z,10.90
2022-11-01T21:36:52.173Z,10.80
2022-11-01T21:39:39.320Z,10.80
2022-11-01T21:42:30.958Z,10.70
2022-11-01T21:45:25.625Z,10.70
2022-11-01T21:48:17.617Z,10.60
2022-11-01T21:51:06.525Z,10.60
2022-11-01T21:54:00.162Z,10.50
2022-11-01T21:56:51.109Z,10.40
2022-11-01T21:59:39.397Z,10.40
2022-11-01T22:02:26.999Z,10.30
2022-11-01T22:05:15.022Z,10.20
2022-11-01T22:08:03.990Z,10.20
2022-11-01T22:10:51.621Z,10.10
2022-11-01T22:13:39.468Z,10.00
2022-11-01T22:16:27.631Z,10.00
2022-11-01T22:19:15.835Z,9.90
2022-11-01T22:22:03.527Z,9.90
2022-11-01T22:24:52.896Z,9.80
2022-11-01T22:27:40.548Z,9.90
2022-11-01T22:30:28.485Z,9.90
2022-11-01T22:33:16.243Z,10.00
2022-11-01T22:36:05.120Z,10.00
2022-11-01T22:38:55.938Z,9.90
2022-11-01T22:41:48.543Z,9.80
2022-11-01T22:44:37.870Z,9.70
2022-11-01T22:47:27.483Z,9.60
2022-11-01T22:50:15.315Z,9.50
2022-11-01T22:53:03.181Z,9.40
2022-11-01T22:55:51.630Z,9.30
2022-11-01T22:58:40.194Z,9.20
2022-11-01T23:01:30.623Z,9.10
2022-11-01T23:04:22.300Z,9.10
2022-11-01T23:07:21.067Z,9.00
2022-11-01T23:10:22.554Z,8.90
2022-11-01T23:13:33.905Z,8.80
2022-11-01T23:16:26.155Z,8.70
2022-11-01T23:19:14.646Z,8.60
2022-11-01T23:22:01.927Z,8.50
2022-11-01T23:24:49.755Z,8.50
2022-11-01T23:27:37.268Z,8.40
2022-11-01T23:30:24.524Z,8.40
2022-11-01T23:33:13.822Z,8.30
2022-11-01T23:36:01.846Z,8.30
2022-11-01T23:38:50.179Z,8.20
2022-11-01T23:41:39.162Z,8.20
2022-11-01T23:44:28.083Z,8.10
2022-11-01T23:47:19.713Z,8.10
2022-11-01T23:50:17.488Z,8.00
2022-11-01T23:53:07.837Z,8.00
2022-11-01T23:55:56.106Z,7.90
2022-11-01T23:58:43.710Z,7.80
